createdAt,value
2022-08-26T00:01:39.295Z,101178.91
2022-08-26T00:04:06.015Z,101175.19
2022-08-26T00:06:33.668Z,101174.56
2022-08-26T00:09:00.465Z,101174.44
2022-08-26T00:11:27.869Z,101167.03
2022-08-26T00:13:56.011Z,101173.69
2022-08-26T00:16:24.464Z,101167.53
2022-08-26T00:18:51.607Z,101167.63
2022-08-26T00:21:18.657Z,101172.22
2022-08-26T00:23:46.353Z,101164.31
2022-08-26T00:26:13.685Z,101162.69
2022-08-26T00:28:40.876Z,101161.09
2022-08-26T00:31:08.032Z,101162.31
2022-08-26T00:33:38.953Z,101154.38
2022-08-26T00:36:06.951Z,101155.28
2022-08-26T00:38:34.178Z,101151.06
2022-08-26T00:41:05.312Z,101150.28
2022-08-26T00:43:47.078Z,101156.00
2022-08-26T00:46:19.527Z,101151.66
2022-08-26T00:48:49.394Z,101143.84
2022-08-26T00:51:19.628Z,101153.75
2022-08-26T00:53:58.795Z,101146.47
2022-08-26T00:56:38.381Z,101146.47
2022-08-26T00:59:11.473Z,101150.19
2022-08-26T01:01:40.297Z,101150.94
2022-08-26T01:04:07.084Z,101152.63
2022-08-26T01:06:33.798Z,101148.22
2022-08-26T01:09:00.606Z,101147.09
2022-08-26T01:11:27.841Z,101145.22
2022-08-26T01:13:56.738Z,101148.94
2022-08-26T01:16:25.772Z,101150.94
2022-08-26T01:18:55.456Z,101152.63
2022-08-26T01:21:41.293Z,101148.22
2022-08-26T01:24:10.315Z,101146.25
2022-08-26T01:26:41.402Z,101154.13
2022-08-26T01:29:19.266Z,101146.97
2022-08-26T01:31:50.285Z,101145.00
2022-08-26T01:34:36.313Z,101143.16
2022-08-26T01:37:15.459Z,101141.28
2022-08-26T01:39:43.988Z,101144.88
2022-08-26T01:42:14.263Z,101134.88
2022-08-26T01:44:47.258Z,101134.88
2022-08-26T01:47:16.689Z,101134.88
2022-08-26T01:49:46.048Z,101138.09
2022-08-26T01:52:16.682Z,101128.84
2022-08-26T01:54:46.338Z,101130.69
2022-08-26T01:57:19.075Z,101128.69
2022-08-26T01:59:46.241Z,101127.84
2022-08-26T02:02:13.194Z,101131.56
2022-08-26T02:04:48.875Z,101125.25
2022-08-26T02:07:18.570Z,101134.50
2022-08-26T02:09:48.539Z,101125.63
2022-08-26T02:12:17.818Z,101123.28
2022-08-26T02:14:50.316Z,101126.84
2022-08-26T02:17:19.151Z,101128.06
2022-08-26T02:19:49.741Z,101128.06
2022-08-26T02:22:21.427Z,101122.88
2022-08-26T02:24:57.493Z,101124.00
2022-08-26T02:27:32.259Z,101119.75
2022-08-26T02:30:21.593Z,101120.88
2022-08-26T02:32:49.490Z,101125.19
2022-08-26T02:35:20.201Z,101126.41
2022-08-26T02:37:47.565Z,101122.94
2022-08-26T02:40:18.203Z,101118.63
2022-08-26T02:42:45.227Z,101116.03
2022-08-26T02:45:12.007Z,101123.44
2022-08-26T02:47:39.395Z,101115.50
2022-08-26T02:50:07.355Z,101114.75
2022-08-26T02:52:34.951Z,101118.47
2022-08-26T02:55:01.703Z,101110.56
2022-08-26T02:57:29.126Z,101111.78
2022-08-26T02:59:55.800Z,101112.03
2022-08-26T03:02:23.203Z,101118.44
2022-08-26T03:04:57.949Z,101110.41
2022-08-26T03:07:29.498Z,101109.53
2022-08-26T03:09:57.258Z,101111.41
2022-08-26T03:12:24.245Z,101113.09
2022-08-26T03:14:53.063Z,101107.94
2022-08-26T03:17:19.774Z,101097.41
2022-08-26T03:19:46.535Z,101106.44
2022-08-26T03:22:14.672Z,101103.94
2022-08-26T03:24:42.227Z,101103.19
2022-08-26T03:27:13.068Z,101111.34
2022-08-26T03:29:59.733Z,101107.88
2022-08-26T03:32:27.086Z,101105.53
2022-08-26T03:34:54.849Z,101103.88
2022-08-26T03:37:22.780Z,101104.88
2022-08-26T03:39:49.687Z,101099.34
2022-08-26T03:42:16.517Z,101095.75
2022-08-26T03:44:43.342Z,101099.47
2022-08-26T03:47:10.505Z,101106.75
2022-08-26T03:49:37.471Z,101097.22
2022-08-26T03:52:04.459Z,101099.94
2022-08-26T03:54:31.353Z,101100.91
2022-08-26T03:56:58.417Z,101097.56
2022-08-26T03:59:25.255Z,101090.28
2022-08-26T04:01:52.171Z,101086.59
2022-08-26T04:04:22.857Z,101093.66
2022-08-26T04:06:57.453Z,101082.16
2022-08-26T04:09:24.773Z,101084.00
2022-08-26T04:11:51.883Z,101085.19
2022-08-26T04:14:21.376Z,101086.84
2022-08-26T04:16:48.992Z,101082.25
2022-08-26T04:19:16.778Z,101078.69
2022-08-26T04:21:45.175Z,101083.25
2022-08-26T04:24:13.751Z,101091.63
2022-08-26T04:26:42.867Z,101086.09
2022-08-26T04:29:13.861Z,101082.72
2022-08-26T04:31:41.451Z,101085.84
2022-08-26T04:34:08.395Z,101087.69
2022-08-26T04:36:37.915Z,101089.44
2022-08-26T04:39:05.480Z,101088.44
2022-08-26T04:41:32.963Z,101091.25
2022-08-26T04:43:59.963Z,101084.00
2022-08-26T04:46:27.528Z,101082.16
2022-08-26T04:48:54.435Z,101074.97
2022-08-26T04:51:28.028Z,101086.25
2022-08-26T04:53:57.164Z,101083.19
2022-08-26T04:56:30.312Z,101082.31
2022-08-26T04:58:57.214Z,101089.25
2022-08-26T05:01:24.218Z,101096.38
2022-08-26T05:03:51.202Z,101096.28
2022-08-26T05:06:19.708Z,101086.06
2022-08-26T05:08:46.783Z,101092.34
2022-08-26T05:11:13.863Z,101092.97
2022-08-26T05:13:41.526Z,101100.88
2022-08-26T05:16:11.844Z,101096.31
2022-08-26T05:18:39.753Z,101097.72
2022-08-26T05:21:07.251Z,101102.88
2022-08-26T05:23:36.447Z,101094.63
2022-08-26T05:26:07.653Z,101102.06
2022-08-26T05:28:35.000Z,101100.84
2022-08-26T05:31:02.075Z,101101.22
2022-08-26T05:33:29.694Z,101102.59
2022-08-26T05:35:56.382Z,101106.91
2022-08-26T05:38:23.656Z,101101.03
2022-08-26T05:40:52.716Z,101101.53
2022-08-26T05:43:21.307Z,101098.34
2022-08-26T05:45:50.080Z,101093.53
2022-08-26T05:48:19.088Z,101095.63
2022-08-26T05:50:52.404Z,101092.28
2022-08-26T05:53:21.071Z,101100.19
2022-08-26T05:55:53.218Z,101099.94
2022-08-26T05:58:21.652Z,101089.94
2022-08-26T06:00:58.555Z,101095.63
2022-08-26T06:03:25.728Z,101093.16
2022-08-26T06:05:52.659Z,101098.09
2022-08-26T06:08:21.290Z,101099.44
2022-08-26T06:10:53.825Z,101092.03
2022-08-26T06:13:24.078Z,101103.91
2022-08-26T06:15:52.080Z,101095.22
2022-08-26T06:18:25.251Z,101099.13
2022-08-26T06:20:56.977Z,101097.50
2022-08-26T06:23:44.778Z,101101.38
2022-08-26T06:26:13.114Z,101097.63
2022-08-26T06:28:39.972Z,101098.16
2022-08-26T06:31:10.609Z,101099.69
2022-08-26T06:33:37.817Z,101106.41
2022-08-26T06:36:07.207Z,101100.50
2022-08-26T06:38:34.294Z,101098.97
2022-08-26T06:41:03.576Z,101088.44
2022-08-26T06:43:30.268Z,101095.41
2022-08-26T06:46:06.465Z,101092.56
2022-08-26T06:48:34.723Z,101096.53
2022-08-26T06:51:10.482Z,101094.41
2022-08-26T06:53:37.993Z,101096.25
2022-08-26T06:56:10.205Z,101091.81
2022-08-26T06:58:39.137Z,101096.41
2022-08-26T07:01:18.794Z,101099.47
2022-08-26T07:03:47.566Z,101096.00
2022-08-26T07:06:15.531Z,101097.03
2022-08-26T07:08:43.328Z,101089.94
2022-08-26T07:11:11.349Z,101082.41
2022-08-26T07:13:39.542Z,101079.34
2022-08-26T07:16:08.528Z,101079.59
2022-08-26T07:18:37.243Z,101080.41
2022-08-26T07:21:08.839Z,101074.13
2022-08-26T07:23:35.733Z,101073.34
2022-08-26T07:26:16.313Z,101066.84
2022-08-26T07:28:47.406Z,101071.69
2022-08-26T07:31:15.746Z,101068.56
2022-08-26T07:33:43.111Z,101068.75
2022-08-26T07:36:11.923Z,101067.09
2022-08-26T07:38:39.899Z,101064.03
2022-08-26T07:41:07.602Z,101065.63
2022-08-26T07:43:36.660Z,101057.00
2022-08-26T07:46:06.980Z,101075.47
2022-08-26T07:48:34.744Z,101064.44
2022-08-26T07:51:03.065Z,101069.84
2022-08-26T07:53:29.893Z,101058.63
2022-08-26T07:55:59.047Z,101053.34
2022-08-26T07:58:26.087Z,101067.63
2022-08-26T08:00:52.849Z,101066.81
2022-08-26T08:03:20.805Z,101058.25
2022-08-26T08:05:47.747Z,101064.59
2022-08-26T08:08:26.747Z,101062.72
2022-08-26T08:10:55.795Z,101059.25
2022-08-26T08:13:22.785Z,101062.34
2022-08-26T08:15:50.699Z,101056.84
2022-08-26T08:18:20.479Z,101063.13
2022-08-26T08:21:04.852Z,101052.81
2022-08-26T08:23:34.737Z,101056.22
2022-08-26T08:26:02.465Z,101055.53
2022-08-26T08:28:29.477Z,101056.03
2022-08-26T08:30:56.556Z,101046.38
2022-08-26T08:33:23.536Z,101043.28
2022-08-26T08:35:50.347Z,101052.84
2022-08-26T08:38:17.069Z,101039.72
2022-08-26T08:40:45.709Z,101040.16
2022-08-26T08:43:25.375Z,101042.22
2022-08-26T08:45:58.475Z,101041.91
2022-08-26T08:48:32.244Z,101036.78
2022-08-26T08:51:04.234Z,101031.53
2022-08-26T08:53:38.431Z,101028.69
2022-08-26T08:56:26.415Z,101030.50
2022-08-26T08:59:01.212Z,101021.66
2022-08-26T09:01:42.243Z,101023.25
2022-08-26T09:04:48.878Z,101011.44
2022-08-26T09:07:23.488Z,101026.25
2022-08-26T09:09:57.399Z,101017.66
2022-08-26T09:12:29.201Z,101021.81
2022-08-26T09:15:31.928Z,101019.63
2022-08-26T09:18:32.878Z,101030.25
2022-08-26T09:21:05.710Z,101024.66
2022-08-26T09:23:34.247Z,101021.41
2022-08-26T09:26:15.114Z,101025.47
2022-08-26T09:28:45.768Z,101025.69
2022-08-26T09:31:18.394Z,101015.34
2022-08-26T09:33:45.254Z,101021.19
2022-08-26T09:36:23.018Z,101009.69
2022-08-26T09:38:52.696Z,101007.75
2022-08-26T09:41:33.483Z,101008.06
2022-08-26T09:44:14.473Z,101000.38
2022-08-26T09:47:03.766Z,101001.47
2022-08-26T09:49:39.795Z,100995.50
2022-08-26T09:52:16.014Z,100995.25
2022-08-26T09:54:46.016Z,100985.75
2022-08-26T09:57:27.566Z,100982.72
2022-08-26T09:59:56.321Z,100974.97
2022-08-26T10:02:33.029Z,100961.84
2022-08-26T10:05:09.261Z,100965.56
2022-08-26T10:07:49.878Z,100948.69
2022-08-26T10:10:27.701Z,100934.66
2022-08-26T10:13:19.720Z,100926.84
2022-08-26T10:15:53.445Z,100921.63
2022-08-26T10:18:30.711Z,100909.97
2022-08-26T10:21:23.642Z,100910.72
2022-08-26T10:23:53.151Z,100923.28
2022-08-26T10:26:33.810Z,100927.84
2022-08-26T10:29:07.298Z,100925.72
2022-08-26T10:31:40.661Z,100918.16
2022-08-26T10:34:08.960Z,100916.47
2022-08-26T10:37:13.487Z,100907.19
2022-08-26T10:39:57.071Z,100893.03
2022-08-26T10:42:38.192Z,100886.00
2022-08-26T10:45:15.178Z,100879.00
2022-08-26T10:47:59.928Z,100873.34
2022-08-26T10:50:32.213Z,100872.47
2022-08-26T10:53:16.656Z,100869.19
2022-08-26T10:56:15.656Z,100875.47
2022-08-26T10:58:57.997Z,100873.97
2022-08-26T11:02:11.407Z,100868.91
2022-08-26T11:04:48.457Z,100867.44
2022-08-26T11:07:44.650Z,100867.16
2022-08-26T11:10:40.145Z,100869.34
2022-08-26T11:13:07.364Z,100871.69
2022-08-26T11:15:40.561Z,100863.56
2022-08-26T11:18:10.205Z,100868.34
2022-08-26T11:20:41.749Z,100854.19
2022-08-26T11:23:22.517Z,100849.13
2022-08-26T11:26:01.447Z,100851.53
2022-08-26T11:28:50.068Z,100857.22
2022-08-26T11:31:26.149Z,100855.50
2022-08-26T11:33:57.137Z,100854.56
2022-08-26T11:36:45.520Z,100865.66
2022-08-26T11:39:29.017Z,100864.38
2022-08-26T11:42:00.120Z,100867.81
2022-08-26T11:44:37.400Z,100874.41
2022-08-26T11:47:05.396Z,100892.03
2022-08-26T11:49:38.343Z,100886.16
2022-08-26T11:52:13.971Z,100890.22
2022-08-26T11:54:40.836Z,100881.50
2022-08-26T11:57:11.990Z,100900.94
2022-08-26T11:59:40.480Z,100892.88
2022-08-26T12:02:17.955Z,100903.97
2022-08-26T12:04:48.878Z,100898.22
2022-08-26T12:07:16.657Z,100894.81
2022-08-26T12:09:57.355Z,100880.31
2022-08-26T12:12:26.628Z,100873.50
2022-08-26T12:15:13.893Z,100877.78
2022-08-26T12:17:42.020Z,100882.78
2022-08-26T12:20:46.073Z,100883.59
2022-08-26T12:23:43.262Z,100894.81
2022-08-26T12:26:20.801Z,100905.16
2022-08-26T12:28:51.248Z,100915.78
2022-08-26T12:31:42.236Z,100910.66
2022-08-26T12:34:17.522Z,100919.31
2022-08-26T12:36:54.872Z,100935.50
2022-08-26T12:39:37.367Z,100948.53
2022-08-26T12:42:24.203Z,100947.81
2022-08-26T12:45:03.891Z,100961.97
2022-08-26T12:47:42.161Z,100973.63
2022-08-26T12:50:22.840Z,100980.78
2022-08-26T12:52:57.936Z,100966.44
2022-08-26T12:55:35.736Z,100943.38
2022-08-26T12:58:37.122Z,100944.41
2022-08-26T13:01:07.074Z,100953.09
2022-08-26T13:03:33.847Z,100952.84
2022-08-26T13:06:29.662Z,100958.13
2022-08-26T13:09:06.524Z,100958.31
2022-08-26T13:11:39.354Z,100946.53
2022-08-26T13:14:11.674Z,100954.75
2022-08-26T13:16:46.353Z,100956.78
2022-08-26T13:19:16.508Z,100952.41
2022-08-26T13:21:48.052Z,100957.13
2022-08-26T13:24:29.072Z,100948.94
2022-08-26T13:26:56.238Z,100941.75
2022-08-26T13:29:23.115Z,100937.03
2022-08-26T13:31:50.784Z,100923.06
2022-08-26T13:34:19.806Z,100916.34
2022-08-26T13:36:51.686Z,100932.97
2022-08-26T13:39:18.898Z,100943.34
2022-08-26T13:41:46.296Z,100954.19
2022-08-26T13:44:13.568Z,100964.38
2022-08-26T13:46:40.792Z,100963.91
2022-08-26T13:49:07.910Z,100948.94
2022-08-26T13:51:35.029Z,100935.06
2022-08-26T13:54:01.800Z,100920.69
2022-08-26T13:56:32.438Z,100925.66
2022-08-26T13:58:59.879Z,100929.06
2022-08-26T14:01:29.084Z,100942.97
2022-08-26T14:03:56.033Z,100964.00
2022-08-26T14:06:22.775Z,100982.06
2022-08-26T14:08:49.689Z,101000.53
2022-08-26T14:11:16.748Z,101010.94
2022-08-26T14:13:43.477Z,101018.41
2022-08-26T14:16:14.043Z,101021.38
2022-08-26T14:18:43.030Z,100986.59
2022-08-26T14:21:12.923Z,100965.03
2022-08-26T14:23:40.307Z,100984.28
2022-08-26T14:26:08.519Z,101002.69
2022-08-26T14:28:35.739Z,101012.47
2022-08-26T14:31:02.952Z,101022.00
2022-08-26T14:33:32.837Z,100997.88
2022-08-26T14:36:19.306Z,100973.06
2022-08-26T14:38:46.688Z,100947.59
2022-08-26T14:41:14.379Z,100934.88
2022-08-26T14:43:45.799Z,100906.38
2022-08-26T14:46:14.288Z,100877.00
2022-08-26T14:48:41.074Z,100850.78
2022-08-26T14:51:07.994Z,100849.94
2022-08-26T14:53:53.342Z,100847.94
2022-08-26T14:56:20.134Z,100852.38
2022-08-26T14:58:47.140Z,100853.19
2022-08-26T15:01:14.002Z,100840.94
2022-08-26T15:03:40.844Z,100826.03
2022-08-26T15:06:08.141Z,100823.19
2022-08-26T15:08:36.791Z,100819.94
2022-08-26T15:11:04.088Z,100824.53
2022-08-26T15:13:31.034Z,100815.25
2022-08-26T15:15:57.795Z,100802.22
2022-08-26T15:18:24.555Z,100789.84
2022-08-26T15:20:51.281Z,100780.81
2022-08-26T15:23:18.172Z,100781.28
2022-08-26T15:25:45.116Z,100768.41
2022-08-26T15:28:12.002Z,100770.88
2022-08-26T15:30:38.738Z,100770.59
2022-08-26T15:33:05.520Z,100758.44
2022-08-26T15:35:42.604Z,100763.38
2022-08-26T15:38:10.881Z,100765.44
2022-08-26T15:40:37.960Z,100755.84
2022-08-26T15:43:18.502Z,100749.53
2022-08-26T15:45:51.985Z,100751.56
2022-08-26T15:48:19.147Z,100751.06
2022-08-26T15:50:55.119Z,100746.09
2022-08-26T15:53:22.658Z,100744.34
2022-08-26T15:55:50.179Z,100736.44
2022-08-26T15:58:17.116Z,100732.69
2022-08-26T16:00:44.987Z,100729.56
2022-08-26T16:03:11.821Z,100733.59
2022-08-26T16:05:39.832Z,100742.25
2022-08-26T16:08:07.840Z,100744.09
2022-08-26T16:10:36.668Z,100749.00
2022-08-26T16:13:04.569Z,100751.72
2022-08-26T16:15:34.895Z,100765.31
2022-08-26T16:18:02.503Z,100762.00
2022-08-26T16:20:30.299Z,100760.25
2022-08-26T16:22:57.044Z,100770.06
2022-08-26T16:25:23.780Z,100775.38
2022-08-26T16:27:51.945Z,100780.69
2022-08-26T16:30:20.286Z,100794.28
2022-08-26T16:32:47.514Z,100788.09
2022-08-26T16:35:15.255Z,100789.84
2022-08-26T16:37:42.460Z,100793.41
2022-08-26T16:40:10.475Z,100787.84
2022-08-26T16:42:38.042Z,100794.00
2022-08-26T16:45:05.806Z,100796.47
2022-08-26T16:47:33.635Z,100794.88
2022-08-26T16:50:00.597Z,100791.88
2022-08-26T16:52:28.297Z,100791.81
2022-08-26T16:54:58.539Z,100796.59
2022-08-26T16:57:25.256Z,100797.59
2022-08-26T16:59:52.101Z,100802.44
2022-08-26T17:02:18.955Z,100805.28
2022-08-26T17:04:46.164Z,100817.13
2022-08-26T17:07:15.243Z,100821.31
2022-08-26T17:09:43.473Z,100832.78
2022-08-26T17:12:10.379Z,100837.50
2022-08-26T17:14:37.477Z,100848.25
2022-08-26T17:17:05.720Z,100848.25
2022-08-26T17:19:32.792Z,100844.94
2022-08-26T17:22:08.783Z,100836.03
2022-08-26T17:24:35.550Z,100842.09
2022-08-26T17:27:02.423Z,100844.06
2022-08-26T17:29:29.207Z,100834.06
2022-08-26T17:31:55.954Z,100825.41
2022-08-26T17:34:23.140Z,100813.69
2022-08-26T17:36:50.285Z,100810.00
2022-08-26T17:39:17.188Z,100801.56
2022-08-26T17:41:44.149Z,100810.97
2022-08-26T17:44:11.085Z,100806.53
2022-08-26T17:46:38.534Z,100805.09
2022-08-26T17:49:05.462Z,100808.78
2022-08-26T17:51:32.919Z,100804.19
2022-08-26T17:53:59.755Z,100804.47
2022-08-26T17:56:28.399Z,100800.16
2022-08-26T17:59:02.257Z,100794.84
2022-08-26T18:01:30.348Z,100791.88
2022-08-26T18:04:00.350Z,100783.09
2022-08-26T18:06:27.868Z,100781.28
2022-08-26T18:08:54.806Z,100779.41
2022-08-26T18:11:23.107Z,100788.91
2022-08-26T18:13:50.089Z,100787.44
2022-08-26T18:16:18.089Z,100798.44
2022-08-26T18:18:45.955Z,100796.84
2022-08-26T18:21:18.521Z,100789.78
2022-08-26T18:23:46.472Z,100797.22
2022-08-26T18:26:26.498Z,100783.91
2022-08-26T18:28:53.664Z,100793.44
2022-08-26T18:31:21.278Z,100783.53
2022-08-26T18:33:48.370Z,100781.44
2022-08-26T18:36:27.889Z,100780.81
2022-08-26T18:38:55.537Z,100784.78
2022-08-26T18:41:24.646Z,100776.06
2022-08-26T18:43:53.276Z,100778.16
2022-08-26T18:46:21.370Z,100783.69
2022-08-26T18:48:50.709Z,100768.41
2022-08-26T18:51:20.807Z,100766.03
2022-08-26T18:53:47.872Z,100767.91
2022-08-26T18:56:18.067Z,100762.72
2022-08-26T18:58:45.762Z,100761.97
2022-08-26T19:01:13.799Z,100769.28
2022-08-26T19:03:41.602Z,100769.16
2022-08-26T19:06:13.666Z,100773.00
2022-08-26T19:08:44.785Z,100773.13
2022-08-26T19:11:12.686Z,100783.97
2022-08-26T19:13:42.567Z,100785.56
2022-08-26T19:16:19.566Z,100797.56
2022-08-26T19:18:47.145Z,100805.09
2022-08-26T19:21:15.115Z,100817.06
2022-08-26T19:23:41.970Z,100830.38
2022-08-26T19:26:10.351Z,100826.94
2022-08-26T19:28:40.851Z,100848.03
2022-08-26T19:31:12.606Z,100843.72
2022-08-26T19:33:42.057Z,100850.16
2022-08-26T19:36:14.967Z,100851.88
2022-08-26T19:38:42.931Z,100853.63
2022-08-26T19:41:27.795Z,100855.22
2022-08-26T19:44:10.123Z,100854.19
2022-08-26T19:49:05.790Z,100862.50
2022-08-26T19:51:34.676Z,100870.50
2022-08-26T19:54:01.714Z,100868.16
2022-08-26T19:56:29.081Z,100862.00
2022-08-26T19:58:57.744Z,100862.00
2022-08-26T20:01:25.238Z,100851.00
2022-08-26T20:03:52.155Z,100847.16
2022-08-26T20:06:20.188Z,100848.16
2022-08-26T20:08:47.365Z,100840.72
2022-08-26T20:11:18.908Z,100835.19
2022-08-26T20:13:47.965Z,100837.16
2022-08-26T20:16:16.345Z,100837.91
2022-08-26T20:19:03.361Z,100846.78
2022-08-26T20:21:34.249Z,100841.34
2022-08-26T20:24:07.316Z,100846.91
2022-08-26T20:26:37.373Z,100852.47
2022-08-26T20:29:05.832Z,100851.75
2022-08-26T20:31:32.807Z,100850.13
2022-08-26T20:33:59.783Z,100849.28
2022-08-26T20:36:27.513Z,100858.28
2022-08-26T20:38:55.522Z,100860.25
2022-08-26T20:41:25.495Z,100863.97
2022-08-26T20:43:53.261Z,100863.22
2022-08-26T20:46:24.119Z,100863.22
2022-08-26T20:48:51.838Z,100864.31
2022-08-26T20:51:18.967Z,100869.00
2022-08-26T20:53:45.934Z,100871.50
2022-08-26T20:56:14.096Z,100871.63
2022-08-26T20:58:41.282Z,100864.47
2022-08-26T21:01:17.985Z,100870.88
2022-08-26T21:03:45.066Z,100877.31
2022-08-26T21:06:12.494Z,100889.16
2022-08-26T21:08:42.649Z,100871.50
2022-08-26T21:11:10.144Z,100874.34
2022-08-26T21:13:54.475Z,100882.50
2022-08-26T21:16:25.236Z,100876.19
2022-08-26T21:18:52.559Z,100866.22
2022-08-26T21:21:19.356Z,100862.38
2022-08-26T21:23:51.788Z,100864.97
2022-08-26T21:26:18.621Z,100859.66
2022-08-26T21:28:46.354Z,100853.72
2022-08-26T21:31:16.866Z,100853.09
2022-08-26T21:33:44.161Z,100857.78
2022-08-26T21:36:12.724Z,100868.91
2022-08-26T21:38:41.029Z,100865.56
2022-08-26T21:41:13.295Z,100865.69
2022-08-26T21:43:41.706Z,100866.69
2022-08-26T21:46:17.075Z,100862.00
2022-08-26T21:48:51.618Z,100854.59
2022-08-26T21:51:21.373Z,100848.44
2022-08-26T21:53:48.745Z,100859.03
2022-08-26T21:56:17.141Z,100867.19
2022-08-26T21:58:44.411Z,100873.84
2022-08-26T22:01:12.935Z,100880.00
2022-08-26T22:03:47.590Z,100889.16
2022-08-26T22:06:22.170Z,100881.13
2022-08-26T22:08:53.104Z,100869.28
2022-08-26T22:11:20.507Z,100871.75
2022-08-26T22:13:48.705Z,100865.19
2022-08-26T22:16:15.644Z,100884.09
2022-08-26T22:18:43.966Z,100882.59
2022-08-26T22:21:19.842Z,100873.72
2022-08-26T22:23:46.854Z,100856.47
2022-08-26T22:26:15.100Z,100850.03
2022-08-26T22:28:50.061Z,100836.34
2022-08-26T22:31:22.480Z,100839.06
2022-08-26T22:33:55.000Z,100845.84
2022-08-26T22:36:24.361Z,100839.56
2022-08-26T22:38:51.429Z,100839.28
2022-08-26T22:41:18.549Z,100821.41
2022-08-26T22:43:46.024Z,100819.81
2022-08-26T22:46:20.700Z,100806.38
2022-08-26T22:48:47.423Z,100806.09
2022-08-26T22:51:20.756Z,100799.69
2022-08-26T22:53:47.521Z,100810.56
2022-08-26T22:56:14.878Z,100802.81
2022-08-26T22:58:42.044Z,100798.84
2022-08-26T23:01:08.789Z,100792.06
2022-08-26T23:03:35.975Z,100789.72
2022-08-26T23:06:06.086Z,100773.34
2022-08-26T23:08:32.804Z,100774.81
2022-08-26T23:13:26.335Z,100764.66
2022-08-26T23:16:00.902Z,100769.34
2022-08-26T23:18:27.649Z,100771.31
2022-08-26T23:20:55.839Z,100766.91
2022-08-26T23:23:23.326Z,100770.47
2022-08-26T23:25:50.151Z,100774.16
2022-08-26T23:28:17.764Z,100767.50
2022-08-26T23:30:44.453Z,100781.91
2022-08-26T23:33:11.348Z,100791.91
2022-08-26T23:35:38.238Z,100796.00
2022-08-26T23:38:07.580Z,100777.22
2022-08-26T23:40:37.477Z,100795.09
2022-08-26T23:43:07.743Z,100798.81
2022-08-26T23:45:35.207Z,100805.22
2022-08-26T23:48:02.051Z,100808.78
2022-08-26T23:50:50.002Z,100812.38
2022-08-26T23:53:20.149Z,100819.78
2022-08-26T23:55:48.545Z,100816.31
2022-08-26T23:58:16.981Z,100817.19
